Time;durP1;ratioP1;P1;durP2;ratioP2;P2;SDS_P1;SDS_P2;PMS_P1;PMS_P2;Temp;Humidity;BMP_temperature;BMP_pressure;BME280_temperature;BME280_humidity;BME280_pressure;Samples;Min_cycle;Max_cycle;Signal;HPM_P1;HPM_P2
2021/10/10 00:01:39;;;;;;;;;;;;;;;18.22;nan;100339.56;5090506;28;19931;-80
2021/10/10 00:04:07;;;;;;;;;;;;;;;18.37;nan;100332.34;5076588;28;20345;-80
2021/10/10 00:06:34;;;;;;;;;;;;;;;18.32;nan;100335.66;5055624;28;19955;-80
2021/10/10 00:09:02;;;;;;;;;;;;;;;18.38;nan;100333.91;5056171;28;19931;-81
2021/10/10 00:11:29;;;;;;;;;;;;;;;18.50;nan;100333.16;5089401;28;19931;-80
2021/10/10 00:13:57;;;;;;;;;;;;;;;18.50;nan;100338.84;5094419;28;19924;-80
2021/10/10 00:16:24;;;;;;;;;;;;;;;18.55;nan;100335.47;5094012;28;19928;-81
2021/10/10 00:18:51;;;;;;;;;;;;;;;18.58;nan;100337.41;5056049;28;20291;-80
2021/10/10 00:21:18;;;;;;;;;;;;;;;18.63;nan;100338.88;5086364;28;20504;-80
2021/10/10 00:23:46;;;;;;;;;;;;;;;18.52;nan;100339.19;5094090;28;19931;-80
2021/10/10 00:26:13;;;;;;;;;;;;;;;18.71;nan;100343.09;5093970;28;20252;-80
2021/10/10 00:28:40;;;;;;;;;;;;;;;19.42;nan;100340.53;5075920;28;20352;-80
2021/10/10 00:31:07;;;;;;;;;;;;;;;19.43;nan;100338.50;5094058;28;20275;-80
2021/10/10 00:33:34;;;;;;;;;;;;;;;18.97;nan;100331.38;5059631;28;20299;-80
2021/10/10 00:36:02;;;;;;;;;;;;;;;18.53;nan;100337.94;5077914;28;20307;-80
2021/10/10 00:38:29;;;;;;;;;;;;;;;18.74;nan;100334.50;5075966;28;20387;-80
2021/10/10 00:40:57;;;;;;;;;;;;;;;18.44;nan;100340.63;5093238;28;19931;-80
2021/10/10 00:43:24;;;;;;;;;;;;;;;18.79;nan;100336.78;5074816;28;20359;-80
2021/10/10 00:45:51;;;;;;;;;;;;;;;18.70;nan;100338.69;5078823;28;20333;-80
2021/10/10 00:48:18;;;;;;;;;;;;;;;18.55;nan;100343.16;5090488;28;20252;-80
2021/10/10 00:50:46;;;;;;;;;;;;;;;18.69;nan;100343.53;5100585;28;19924;-80
2021/10/10 00:53:15;;;;;;;;;;;;;;;17.95;nan;100339.88;5100251;28;19953;-80
2021/10/10 00:55:43;;;;;;;;;;;;;;;18.60;nan;100339.78;5100117;28;20290;-80
2021/10/10 00:58:12;;;;;;;;;;;;;;;18.69;nan;100343.53;5100201;28;20665;-80
2021/10/10 01:00:39;;;;;;;;;;;;;;;19.02;nan;100339.31;5100279;28;19930;-80
2021/10/10 01:03:06;;;;;;;;;;;;;;;18.70;nan;100342.31;5082094;28;19924;-80
2021/10/10 01:05:34;;;;;;;;;;;;;;;18.79;nan;100333.16;5082276;28;20363;-80
2021/10/10 01:08:01;;;;;;;;;;;;;;;18.38;nan;100339.56;5100255;28;19925;-80
2021/10/10 01:10:29;;;;;;;;;;;;;;;18.63;nan;100339.66;5100252;28;19924;-80
2021/10/10 01:12:56;;;;;;;;;;;;;;;18.58;nan;100339.44;5082137;28;19985;-80
2021/10/10 01:15:24;;;;;;;;;;;;;;;19.07;nan;100330.25;5099742;28;19928;-80
2021/10/10 01:17:51;;;;;;;;;;;;;;;18.89;nan;100329.19;5099954;28;19924;-80
2021/10/10 01:20:19;;;;;;;;;;;;;;;18.77;nan;100327.94;5082029;28;20488;-80
2021/10/10 01:22:46;;;;;;;;;;;;;;;18.65;nan;100325.06;5071997;28;20386;-80
2021/10/10 01:25:13;;;;;;;;;;;;;;;18.61;nan;100325.19;5060729;28;19930;-80
2021/10/10 01:27:40;;;;;;;;;;;;;;;17.78;nan;100320.56;5099966;28;19969;-80
2021/10/10 01:30:08;;;;;;;;;;;;;;;17.82;nan;100324.06;5082222;28;19924;-80
2021/10/10 01:32:35;;;;;;;;;;;;;;;18.16;nan;100327.19;5099856;28;19923;-80
2021/10/10 01:35:03;;;;;;;;;;;;;;;17.99;nan;100331.31;5086642;28;19931;-79
2021/10/10 01:37:30;;;;;;;;;;;;;;;18.10;nan;100319.72;5081792;28;19928;-80
2021/10/10 01:39:57;;;;;;;;;;;;;;;18.27;nan;100315.59;5078600;28;19930;-80
2021/10/10 01:42:24;;;;;;;;;;;;;;;18.55;nan;100309.19;5097665;28;19928;-80
2021/10/10 01:44:52;;;;;;;;;;;;;;;18.57;nan;100307.50;5079949;28;19930;-80
2021/10/10 01:47:19;;;;;;;;;;;;;;;18.63;nan;100308.53;5096460;28;19924;-80
2021/10/10 01:49:48;;;;;;;;;;;;;;;18.92;nan;100306.44;5079003;28;19924;-80
2021/10/10 01:52:15;;;;;;;;;;;;;;;18.87;nan;100303.38;5096724;28;19930;-80
2021/10/10 01:54:42;;;;;;;;;;;;;;;18.64;nan;100306.50;5096701;28;19931;-80
2021/10/10 01:57:10;;;;;;;;;;;;;;;18.56;nan;100311.56;5096489;28;19938;-80
2021/10/10 01:59:38;;;;;;;;;;;;;;;18.36;nan;100313.72;5096447;28;19931;-80
2021/10/10 02:02:05;;;;;;;;;;;;;;;18.10;nan;100312.00;5096549;28;19953;-80
2021/10/10 02:04:33;;;;;;;;;;;;;;;17.78;nan;100317.72;5096616;28;19927;-80
2021/10/10 02:07:00;;;;;;;;;;;;;;;17.71;nan;100330.00;5075111;28;19925;-80
2021/10/10 02:09:27;;;;;;;;;;;;;;;17.24;nan;100317.38;5066046;28;19932;-80
2021/10/10 02:11:54;;;;;;;;;;;;;;;17.86;nan;100321.94;5096151;28;19980;-80
2021/10/10 02:14:21;;;;;;;;;;;;;;;18.17;nan;100322.34;5070931;28;19924;-80
2021/10/10 02:16:49;;;;;;;;;;;;;;;18.26;nan;100317.66;5081676;28;19924;-80
2021/10/10 02:19:16;;;;;;;;;;;;;;;17.98;nan;100318.38;5096197;28;19924;-80
2021/10/10 02:21:44;;;;;;;;;;;;;;;18.15;nan;100319.97;5076508;28;19928;-80
2021/10/10 02:24:11;;;;;;;;;;;;;;;18.09;nan;100321.75;5088057;28;19924;-80
2021/10/10 02:26:38;;;;;;;;;;;;;;;18.41;nan;100320.91;5089628;28;19930;-80
2021/10/10 02:29:06;;;;;;;;;;;;;;;17.96;nan;100306.75;5074716;28;19969;-80
2021/10/10 02:31:33;;;;;;;;;;;;;;;17.76;nan;100321.00;5070855;28;19924;-80
2021/10/10 02:34:00;;;;;;;;;;;;;;;18.10;nan;100306.34;5095689;28;19938;-80
2021/10/10 02:36:27;;;;;;;;;;;;;;;17.85;nan;100318.34;5096213;28;19924;-80
2021/10/10 02:38:55;;;;;;;;;;;;;;;17.90;nan;100314.19;5095650;28;19928;-80
2021/10/10 02:41:22;;;;;;;;;;;;;;;17.80;nan;100307.56;5095631;28;19924;-80
2021/10/10 02:43:50;;;;;;;;;;;;;;;17.64;nan;100301.13;5095557;28;19931;-80
2021/10/10 02:46:17;;;;;;;;;;;;;;;18.07;nan;100300.81;5077809;28;19930;-80
2021/10/10 02:48:48;;;;;;;;;;;;;;;18.11;nan;100302.31;5095263;28;19940;-80
2021/10/10 02:51:15;;;;;;;;;;;;;;;17.91;nan;100299.59;5095376;28;20374;-80
2021/10/10 02:53:43;;;;;;;;;;;;;;;17.85;nan;100298.53;5086099;28;19928;-80
2021/10/10 02:56:11;;;;;;;;;;;;;;;17.43;nan;100296.75;5086590;28;20017;-80
2021/10/10 02:58:40;;;;;;;;;;;;;;;17.40;nan;100297.59;5094773;28;19924;-80
2021/10/10 03:01:08;;;;;;;;;;;;;;;17.37;nan;100294.91;5095358;28;20381;-80
2021/10/10 03:03:38;;;;;;;;;;;;;;;18.01;nan;100286.41;5060829;28;19928;-80
2021/10/10 03:06:07;;;;;;;;;;;;;;;17.83;nan;100288.91;5090316;28;19924;-80
2021/10/10 03:08:36;;;;;;;;;;;;;;;17.20;nan;100298.94;5095681;28;19934;-80
2021/10/10 03:11:03;;;;;;;;;;;;;;;16.94;nan;100302.75;5077082;28;19924;-80
2021/10/10 03:13:31;;;;;;;;;;;;;;;16.70;nan;100304.06;5086953;28;19924;-80
2021/10/10 03:15:59;;;;;;;;;;;;;;;16.66;nan;100303.38;5094587;28;19924;-79
2021/10/10 03:18:26;;;;;;;;;;;;;;;16.87;nan;100308.56;5056748;28;19928;-80
2021/10/10 03:20:54;;;;;;;;;;;;;;;16.87;nan;100300.09;5106940;28;19924;-80
2021/10/10 03:23:21;;;;;;;;;;;;;;;16.47;nan;100301.31;5094919;28;20363;-80
2021/10/10 03:25:48;;;;;;;;;;;;;;;16.09;nan;100306.47;5073416;28;19925;-80
2021/10/10 03:28:15;;;;;;;;;;;;;;;16.63;nan;100292.94;5072101;28;19981;-80
2021/10/10 03:30:42;;;;;;;;;;;;;;;16.51;nan;100299.25;5094751;28;19924;-80
2021/10/10 03:33:10;;;;;;;;;;;;;;;16.04;nan;100296.50;5108575;28;19927;-80
2021/10/10 03:35:37;;;;;;;;;;;;;;;16.12;nan;100297.97;5094522;28;19924;-80
2021/10/10 03:38:04;;;;;;;;;;;;;;;16.14;nan;100295.50;5094462;28;19930;-80
2021/10/10 03:40:31;;;;;;;;;;;;;;;16.40;nan;100295.81;5076573;28;19924;-80
2021/10/10 03:42:58;;;;;;;;;;;;;;;16.14;nan;100295.50;5049563;28;20291;-80
2021/10/10 03:45:25;;;;;;;;;;;;;;;16.99;nan;100294.56;5090811;28;19928;-80
2021/10/10 03:47:53;;;;;;;;;;;;;;;17.08;nan;100291.13;5093870;28;19924;-80
2021/10/10 03:50:20;;;;;;;;;;;;;;;16.76;nan;100302.34;5094232;28;20371;-80
2021/10/10 03:52:47;;;;;;;;;;;;;;;16.55;nan;100300.78;5076144;28;19924;-80
2021/10/10 03:55:34;;;;;;;;;;;;;;;16.93;nan;100313.25;5094149;28;19930;-80
2021/10/10 03:58:02;;;;;;;;;;;;;;;16.26;nan;100308.16;5068751;28;20574;-80
2021/10/10 04:00:30;;;;;;;;;;;;;;;16.70;nan;100309.72;5070691;28;19924;-80
2021/10/10 04:03:00;;;;;;;;;;;;;;;17.07;nan;100307.28;5080677;28;19930;-80
2021/10/10 04:08:01;;;;;;;;;;;;;;;16.10;nan;100311.69;5093609;28;19934;-80
2021/10/10 04:10:28;;;;;;;;;;;;;;;16.67;nan;100296.47;5094238;28;19924;-80
2021/10/10 04:12:56;;;;;;;;;;;;;;;16.90;nan;100299.22;5059165;28;20396;-80
2021/10/10 04:15:23;;;;;;;;;;;;;;;16.70;nan;100287.16;5094057;28;19924;-80
2021/10/10 04:17:50;;;;;;;;;;;;;;;16.88;nan;100291.19;5094013;28;19947;-80
2021/10/10 04:20:18;;;;;;;;;;;;;;;17.13;nan;100284.97;5094018;28;19924;-80
2021/10/10 04:22:46;;;;;;;;;;;;;;;17.14;nan;100278.09;5075800;28;19935;-80
2021/10/10 04:25:14;;;;;;;;;;;;;;;16.60;nan;100277.66;5093666;28;19924;-80
2021/10/10 04:27:41;;;;;;;;;;;;;;;15.96;nan;100286.56;5059510;28;19950;-80
2021/10/10 04:30:10;;;;;;;;;;;;;;;15.73;nan;100286.59;5072425;28;19924;-80
2021/10/10 04:32:39;;;;;;;;;;;;;;;15.20;nan;100286.66;5085608;28;20375;-80
2021/10/10 04:35:06;;;;;;;;;;;;;;;16.38;nan;100295.44;5093720;28;19928;-80
2021/10/10 04:37:33;;;;;;;;;;;;;;;16.48;nan;100297.31;5055651;28;20353;-80
2021/10/10 04:40:02;;;;;;;;;;;;;;;16.17;nan;100291.81;5073737;28;20260;-80
2021/10/10 04:42:29;;;;;;;;;;;;;;;16.66;nan;100290.03;5064641;28;19931;-80
2021/10/10 04:44:56;;;;;;;;;;;;;;;16.51;nan;100300.03;5073250;28;19924;-81
2021/10/10 04:47:24;;;;;;;;;;;;;;;15.98;nan;100303.03;5093489;28;20293;-80
2021/10/10 04:49:51;;;;;;;;;;;;;;;15.78;nan;100299.41;5062728;28;20406;-80
2021/10/10 04:52:19;;;;;;;;;;;;;;;16.00;nan;100312.69;5061276;28;19928;-80
2021/10/10 04:54:47;;;;;;;;;;;;;;;16.31;nan;100309.69;5075816;28;19934;-80
2021/10/10 04:57:14;;;;;;;;;;;;;;;15.96;nan;100311.94;5093430;28;19931;-80
2021/10/10 04:59:49;;;;;;;;;;;;;;;15.86;nan;100324.19;5075762;28;19928;-80
2021/10/10 05:02:24;;;;;;;;;;;;;;;16.10;nan;100328.59;5093673;28;19924;-80
2021/10/10 05:04:51;;;;;;;;;;;;;;;16.51;nan;100333.09;5093725;28;19930;-80
2021/10/10 05:07:18;;;;;;;;;;;;;;;16.89;nan;100328.69;5079131;28;19924;-80
2021/10/10 05:09:46;;;;;;;;;;;;;;;16.72;nan;100339.09;5093470;28;20405;-80
2021/10/10 05:12:13;;;;;;;;;;;;;;;16.97;nan;100332.94;5075693;28;19928;-80
2021/10/10 05:14:40;;;;;;;;;;;;;;;16.30;nan;100341.97;5072313;28;20304;-80
2021/10/10 05:17:08;;;;;;;;;;;;;;;16.73;nan;100337.06;5087373;28;19924;-80
2021/10/10 05:19:35;;;;;;;;;;;;;;;16.75;nan;100334.63;5093356;28;19930;-80
2021/10/10 05:22:02;;;;;;;;;;;;;;;16.43;nan;100329.59;5075252;28;19924;-80
2021/10/10 05:24:29;;;;;;;;;;;;;;;16.36;nan;100326.13;5079099;28;19924;-80
2021/10/10 05:26:59;;;;;;;;;;;;;;;16.37;nan;100327.72;5090181;28;20456;-80
2021/10/10 05:29:26;;;;;;;;;;;;;;;16.38;nan;100323.66;5077028;28;20384;-80
2021/10/10 05:31:53;;;;;;;;;;;;;;;16.15;nan;100321.66;5078836;28;19931;-80
2021/10/10 05:34:20;;;;;;;;;;;;;;;15.86;nan;100324.19;5097168;28;19924;-80
2021/10/10 05:36:48;;;;;;;;;;;;;;;16.50;nan;100318.19;5082598;28;19924;-80
2021/10/10 05:39:15;;;;;;;;;;;;;;;16.17;nan;100328.50;5096937;28;19930;-80
2021/10/10 05:41:42;;;;;;;;;;;;;;;16.43;nan;100317.50;5082660;28;19978;-80
2021/10/10 05:44:11;;;;;;;;;;;;;;;15.68;nan;100317.28;5097023;28;20525;-80
2021/10/10 05:46:39;;;;;;;;;;;;;;;15.49;nan;100332.91;5064854;28;19977;-79
2021/10/10 05:49:06;;;;;;;;;;;;;;;15.95;nan;100323.63;5089722;28;20291;-80
2021/10/10 05:51:34;;;;;;;;;;;;;;;16.06;nan;100327.88;5079040;28;19924;-80
2021/10/10 05:54:03;;;;;;;;;;;;;;;16.42;nan;100330.03;5084494;28;19931;-80
2021/10/10 05:56:32;;;;;;;;;;;;;;;16.42;nan;100328.00;5083229;28;20015;-80
2021/10/10 05:59:06;;;;;;;;;;;;;;;15.85;nan;100328.25;5095281;28;20291;-81
2021/10/10 06:01:37;;;;;;;;;;;;;;;15.82;nan;100345.22;5084424;28;19929;-80
2021/10/10 06:04:04;;;;;;;;;;;;;;;15.68;nan;100345.44;5062037;28;19924;-80
2021/10/10 06:06:31;;;;;;;;;;;;;;;15.07;nan;100341.13;5078424;28;20341;-80
2021/10/10 06:08:58;;;;;;;;;;;;;;;15.46;nan;100339.38;5096328;28;19931;-80
2021/10/10 06:11:26;;;;;;;;;;;;;;;15.26;nan;100344.06;5096650;28;19924;-80
2021/10/10 06:13:53;;;;;;;;;;;;;;;15.10;nan;100343.09;5078355;28;19978;-80
2021/10/10 06:16:20;;;;;;;;;;;;;;;15.25;nan;100348.09;5078634;28;19930;-80
2021/10/10 06:18:48;;;;;;;;;;;;;;;14.75;nan;100344.38;5096064;28;20290;-80
2021/10/10 06:21:15;;;;;;;;;;;;;;;15.41;nan;100353.13;5096202;28;20409;-80
2021/10/10 06:23:42;;;;;;;;;;;;;;;15.60;nan;100346.81;5096413;28;19924;-80
2021/10/10 06:26:09;;;;;;;;;;;;;;;15.69;nan;100350.66;5096312;28;19930;-80
2021/10/10 06:28:36;;;;;;;;;;;;;;;15.55;nan;100358.56;5103452;28;19924;-81
2021/10/10 06:31:03;;;;;;;;;;;;;;;15.14;nan;100361.53;5073901;28;20371;-80
2021/10/10 06:33:30;;;;;;;;;;;;;;;15.57;nan;100362.53;5092188;28;20379;-81
2021/10/10 06:35:57;;;;;;;;;;;;;;;15.51;nan;100363.44;5085213;28;19931;-81
2021/10/10 06:38:25;;;;;;;;;;;;;;;15.81;nan;100357.72;5081768;28;20381;-80
2021/10/10 06:40:52;;;;;;;;;;;;;;;15.12;nan;100363.97;5078303;28;20363;-80
2021/10/10 06:43:19;;;;;;;;;;;;;;;14.87;nan;100363.53;5077307;28;20400;-82
2021/10/10 06:45:53;;;;;;;;;;;;;;;14.45;nan;100372.44;5077696;28;19924;-82
2021/10/10 06:48:21;;;;;;;;;;;;;;;14.97;nan;100365.38;5074173;28;19924;-82
2021/10/10 06:50:48;;;;;;;;;;;;;;;14.91;nan;100369.09;5074213;28;20388;-82
2021/10/10 06:53:15;;;;;;;;;;;;;;;15.01;nan;100368.94;5074186;28;19924;-82
2021/10/10 06:55:42;;;;;;;;;;;;;;;15.16;nan;100375.97;5064901;28;19924;-82
2021/10/10 06:58:09;;;;;;;;;;;;;;;15.68;nan;100365.97;5037424;28;19925;-84
2021/10/10 07:00:36;;;;;;;;;;;;;;;15.11;nan;100362.38;5039545;28;19933;-82
2021/10/10 07:03:03;;;;;;;;;;;;;;;15.37;nan;100369.25;5063952;28;20375;-83
2021/10/10 07:05:31;;;;;;;;;;;;;;;15.11;nan;100373.66;5058422;28;20432;-81
2021/10/10 07:08:01;;;;;;;;;;;;;;;15.13;nan;100387.31;5075208;28;19977;-84
2021/10/10 07:10:28;;;;;;;;;;;;;;;14.97;nan;100384.28;5080100;28;19924;-83
2021/10/10 07:12:55;;;;;;;;;;;;;;;14.89;nan;100383.56;5070366;28;19979;-84
2021/10/10 07:15:23;;;;;;;;;;;;;;;14.63;nan;100378.66;5068552;28;19925;-82
2021/10/10 07:17:58;;;;;;;;;;;;;;;15.09;nan;100392.97;5072952;28;19924;-85
2021/10/10 07:23:14;;;;;;;;;;;;;;;14.91;nan;100395.22;5076195;28;19924;-83
2021/10/10 07:25:41;;;;;;;;;;;;;;;14.72;nan;100406.31;5066290;28;19924;-84
2021/10/10 07:28:09;;;;;;;;;;;;;;;14.78;nan;100405.44;5050859;28;20341;-83
2021/10/10 07:30:37;;;;;;;;;;;;;;;14.69;nan;100407.97;5048984;28;19931;-82
2021/10/10 07:33:04;;;;;;;;;;;;;;;14.88;nan;100410.13;5068566;28;19928;-83
2021/10/10 07:35:32;;;;;;;;;;;;;;;15.36;nan;100412.69;5071675;28;19924;-82
2021/10/10 07:37:59;;;;;;;;;;;;;;;15.82;nan;100413.66;5070443;28;19925;-83
2021/10/10 07:40:26;;;;;;;;;;;;;;;15.63;nan;100405.91;5021584;28;19929;-85
2021/10/10 07:42:54;;;;;;;;;;;;;;;15.46;nan;100417.44;5044539;28;19925;-86
2021/10/10 07:45:23;;;;;;;;;;;;;;;15.53;nan;100423.75;5066004;28;19924;-83
2021/10/10 07:47:51;;;;;;;;;;;;;;;16.35;nan;100415.56;5040247;28;19928;-82
2021/10/10 07:50:19;;;;;;;;;;;;;;;16.16;nan;100416.34;5072867;28;19980;-82
2021/10/10 07:52:47;;;;;;;;;;;;;;;16.56;nan;100418.03;5072687;28;20424;-81
2021/10/10 07:55:15;;;;;;;;;;;;;;;16.21;nan;100421.47;5057489;28;19963;-80
2021/10/10 07:57:42;;;;;;;;;;;;;;;15.73;nan;100424.69;5065945;28;19932;-83
2021/10/10 08:00:10;;;;;;;;;;;;;;;15.82;nan;100421.31;5067569;28;19931;-80
2021/10/10 08:02:54;;;;;;;;;;;;;;;16.02;nan;100430.66;5053227;28;19949;-81
2021/10/10 08:05:22;;;;;;;;;;;;;;;15.91;nan;100427.22;5081063;28;19924;-81
2021/10/10 08:07:51;;;;;;;;;;;;;;;15.69;nan;100432.38;5074556;28;19924;-80
2021/10/10 08:10:19;;;;;;;;;;;;;;;15.79;nan;100431.44;5074614;28;19924;-81
2021/10/10 08:13:33;;;;;;;;;;;;;;;;;;;;;
2021/10/10 08:17:18;;;;;;;;;;;;;;;16.47;nan;100431.09;5094985;28;19926;-82
2021/10/10 08:19:48;;;;;;;;;;;;;;;16.64;nan;100435.63;5087333;28;19925;-80
2021/10/10 08:22:18;;;;;;;;;;;;;;;17.02;nan;100446.16;5102858;28;19928;-81
2021/10/10 08:24:46;;;;;;;;;;;;;;;17.12;nan;100444.34;5042503;28;19928;-81
2021/10/10 08:27:14;;;;;;;;;;;;;;;17.43;nan;100449.34;5058722;28;19925;-80
2021/10/10 08:29:55;;;;;;;;;;;;;;;17.36;nan;100438.16;5072944;28;20011;-81
2021/10/10 08:32:23;;;;;;;;;;;;;;;18.45;nan;100429.94;5066442;28;19924;-81
2021/10/10 08:34:50;;;;;;;;;;;;;;;18.48;nan;100440.38;5089373;28;19930;-81
2021/10/10 08:37:20;;;;;;;;;;;;;;;17.92;nan;100425.59;5055657;28;20322;-80
2021/10/10 08:39:51;;;;;;;;;;;;;;;17.57;nan;100443.38;5057649;28;19925;-80
2021/10/10 08:42:22;;;;;;;;;;;;;;;17.16;nan;100447.91;5068867;28;19925;-81
2021/10/10 08:44:52;;;;;;;;;;;;;;;16.55;nan;100452.31;5074487;28;19932;-80
2021/10/10 08:47:21;;;;;;;;;;;;;;;16.84;nan;100454.16;5075095;28;19928;-80
2021/10/10 08:49:48;;;;;;;;;;;;;;;17.19;nan;100452.69;5052092;28;19924;-80
2021/10/10 08:52:16;;;;;;;;;;;;;;;15.90;nan;100460.22;5090150;28;19928;-80
2021/10/10 08:54:48;;;;;;;;;;;;;;;16.80;nan;100461.13;5095619;28;19924;-80
2021/10/10 08:57:15;;;;;;;;;;;;;;;17.66;nan;100462.59;5097307;28;19949;-81
2021/10/10 08:59:48;;;;;;;;;;;;;;;17.48;nan;100462.16;5087726;28;19931;-81
2021/10/10 09:02:20;;;;;;;;;;;;;;;17.46;nan;100459.78;5096397;28;19941;-82
2021/10/10 09:04:47;;;;;;;;;;;;;;;18.02;nan;100458.47;5080153;28;19935;-83
2021/10/10 09:07:14;;;;;;;;;;;;;;;18.40;nan;100441.81;5093427;28;19924;-82
2021/10/10 09:09:41;;;;;;;;;;;;;;;18.40;nan;100438.19;5095517;28;19992;-81
2021/10/10 09:12:10;;;;;;;;;;;;;;;17.63;nan;100429.53;5088800;28;19977;-82
2021/10/10 09:14:40;;;;;;;;;;;;;;;18.03;nan;100436.66;5061387;28;19924;-80
2021/10/10 09:17:18;;;;;;;;;;;;;;;17.58;nan;100438.53;5093842;28;20271;-79
2021/10/10 09:19:50;;;;;;;;;;;;;;;16.80;nan;100450.63;5091751;28;19930;-78
2021/10/10 09:22:20;;;;;;;;;;;;;;;17.52;nan;100437.47;5088876;28;19924;-81
2021/10/10 09:24:49;;;;;;;;;;;;;;;17.35;nan;100447.88;5096127;28;20367;-79
2021/10/10 09:27:17;;;;;;;;;;;;;;;17.56;nan;100438.16;5092784;28;19936;-82
2021/10/10 09:29:46;;;;;;;;;;;;;;;17.45;nan;100446.06;5093876;28;20372;-80
2021/10/10 09:32:18;;;;;;;;;;;;;;;17.08;nan;100449.28;5093113;28;19928;-79
2021/10/10 09:34:48;;;;;;;;;;;;;;;16.75;nan;100459.59;5052762;28;19931;-79
2021/10/10 09:37:22;;;;;;;;;;;;;;;16.45;nan;100461.78;5081031;28;19924;-81
2021/10/10 09:39:58;;;;;;;;;;;;;;;16.51;nan;100468.53;5088707;28;20375;-80
2021/10/10 09:42:42;;;;;;;;;;;;;;;17.41;nan;100474.41;5079075;28;19924;-80
2021/10/10 09:45:14;;;;;;;;;;;;;;;15.98;nan;100466.53;5073331;28;19938;-80
2021/10/10 09:47:52;;;;;;;;;;;;;;;16.15;nan;100477.56;5072061;28;19925;-81
2021/10/10 09:50:21;;;;;;;;;;;;;;;17.02;nan;100477.22;5062583;28;19946;-78
2021/10/10 09:52:58;;;;;;;;;;;;;;;16.36;nan;100475.63;5086685;28;20421;-80
2021/10/10 09:55:26;;;;;;;;;;;;;;;16.41;nan;100466.66;5075454;28;20383;-80
2021/10/10 09:57:53;;;;;;;;;;;;;;;16.97;nan;100471.28;5075263;28;19924;-80
2021/10/10 10:00:22;;;;;;;;;;;;;;;16.67;nan;100465.81;5087214;28;19924;-80
2021/10/10 10:02:51;;;;;;;;;;;;;;;16.05;nan;100464.41;5085525;28;19924;-80
2021/10/10 10:05:25;;;;;;;;;;;;;;;16.11;nan;100459.09;5085250;28;19928;-80
2021/10/10 10:07:53;;;;;;;;;;;;;;;16.11;nan;100462.69;5085059;28;19924;-80
2021/10/10 10:10:21;;;;;;;;;;;;;;;16.20;nan;100460.16;5078288;28;19924;-80
2021/10/10 10:12:50;;;;;;;;;;;;;;;16.12;nan;100461.50;5066878;28;20380;-80
2021/10/10 10:15:19;;;;;;;;;;;;;;;16.25;nan;100458.88;5076641;28;19928;-80
2021/10/10 10:17:47;;;;;;;;;;;;;;;16.95;nan;100451.16;5085707;28;19924;-80
2021/10/10 10:20:14;;;;;;;;;;;;;;;16.08;nan;100449.47;5078484;28;19930;-80
2021/10/10 10:22:44;;;;;;;;;;;;;;;16.36;nan;100447.41;5074643;28;19931;-80
2021/10/10 10:25:11;;;;;;;;;;;;;;;16.59;nan;100448.22;5055204;28;19931;-80
2021/10/10 10:27:38;;;;;;;;;;;;;;;16.00;nan;100453.66;5064232;28;19925;-81
2021/10/10 10:30:06;;;;;;;;;;;;;;;16.74;nan;100451.56;5075760;28;19973;-82
2021/10/10 10:32:34;;;;;;;;;;;;;;;16.86;nan;100459.38;5057721;28;19925;-81
2021/10/10 10:35:03;;;;;;;;;;;;;;;17.03;nan;100449.78;5062597;28;19924;-81
2021/10/10 10:37:39;;;;;;;;;;;;;;;16.95;nan;100462.47;5069944;28;19925;-80
2021/10/10 10:40:16;;;;;;;;;;;;;;;16.73;nan;100461.25;5072207;28;19924;-81
2021/10/10 10:43:08;;;;;;;;;;;;;;;17.28;nan;100458.56;5064397;28;19925;-81
2021/10/10 10:45:39;;;;;;;;;;;;;;;16.82;nan;100464.31;5067671;28;19924;-79
2021/10/10 10:48:31;;;;;;;;;;;;;;;16.42;nan;100451.34;5071467;28;19935;-80
2021/10/10 10:51:23;;;;;;;;;;;;;;;16.68;nan;100453.28;5072305;28;19932;-81
2021/10/10 10:53:50;;;;;;;;;;;;;;;16.52;nan;100450.38;5086426;28;19977;-81
2021/10/10 10:56:25;;;;;;;;;;;;;;;16.81;nan;100451.44;5081220;28;19930;-80
2021/10/10 10:58:55;;;;;;;;;;;;;;;16.43;nan;100447.28;5091697;28;19931;-79
2021/10/10 11:01:23;;;;;;;;;;;;;;;16.74;nan;100460.03;5089187;28;19924;-79
2021/10/10 11:03:51;;;;;;;;;;;;;;;16.97;nan;100463.63;5086677;28;19924;-81
2021/10/10 11:06:21;;;;;;;;;;;;;;;16.56;nan;100463.19;5071313;28;19924;-77
2021/10/10 11:08:50;;;;;;;;;;;;;;;17.28;nan;100462.16;5093318;28;20351;-79
2021/10/10 11:11:20;;;;;;;;;;;;;;;17.45;nan;100463.03;5071572;28;19924;-86
2021/10/10 11:13:59;;;;;;;;;;;;;;;17.18;nan;100456.72;5069272;28;19928;-80
2021/10/10 11:16:28;;;;;;;;;;;;;;;17.65;nan;100449.66;5083209;28;19924;-80
2021/10/10 11:19:09;;;;;;;;;;;;;;;16.97;nan;100454.34;5065268;28;19925;-80
2021/10/10 11:21:37;;;;;;;;;;;;;;;17.72;nan;100449.53;5088399;28;19977;-80
2021/10/10 11:24:10;;;;;;;;;;;;;;;17.61;nan;100448.97;5089856;28;19931;-79
2021/10/10 11:26:39;;;;;;;;;;;;;;;16.65;nan;100459.78;5068883;28;19935;-79
2021/10/10 11:29:10;;;;;;;;;;;;;;;17.03;nan;100469.53;5081167;28;19924;-78
2021/10/10 11:31:39;;;;;;;;;;;;;;;16.97;nan;100462.81;5090350;28;19953;-79
2021/10/10 11:34:22;;;;;;;;;;;;;;;;;;;;;
2021/10/10 11:37:18;;;;;;;;;;;;;;;17.43;nan;100468.31;5070589;28;19951;-78
2021/10/10 11:39:45;;;;;;;;;;;;;;;17.35;nan;100459.19;5072294;28;19934;-79
2021/10/10 11:42:16;;;;;;;;;;;;;;;17.34;nan;100456.81;5086754;28;19977;-78
2021/10/10 11:44:48;;;;;;;;;;;;;;;17.37;nan;100455.94;5065997;28;19924;-79
2021/10/10 11:47:24;;;;;;;;;;;;;;;17.72;nan;100444.66;5072176;28;19931;-79
2021/10/10 11:49:57;;;;;;;;;;;;;;;17.66;nan;100443.56;5074678;28;19924;-80
2021/10/10 11:52:30;;;;;;;;;;;;;;;18.25;nan;100439.75;5074317;28;19924;-78
2021/10/10 11:57:55;;;;;;;;;;;;;;;17.76;nan;100430.44;5084220;28;20279;-78
2021/10/10 12:00:26;;;;;;;;;;;;;;;18.71;nan;100436.50;5092733;28;19958;-77
2021/10/10 12:02:54;;;;;;;;;;;;;;;18.03;nan;100436.66;5093823;28;20396;-77
2021/10/10 12:05:22;;;;;;;;;;;;;;;17.91;nan;100437.34;5092691;28;19924;-77
2021/10/10 12:07:52;;;;;;;;;;;;;;;17.89;nan;100425.66;5093251;28;20367;-77
2021/10/10 12:10:20;;;;;;;;;;;;;;;17.75;nan;100437.34;5092439;28;19993;-77
2021/10/10 12:12:48;;;;;;;;;;;;;;;17.67;nan;100447.22;5093674;28;19934;-80
2021/10/10 12:15:16;;;;;;;;;;;;;;;17.78;nan;100442.13;5093010;28;19924;-80
2021/10/10 12:17:47;;;;;;;;;;;;;;;17.27;nan;100434.34;5093787;28;20299;-80
2021/10/10 12:20:17;;;;;;;;;;;;;;;17.10;nan;100429.88;5064095;28;19924;-80
2021/10/10 12:22:48;;;;;;;;;;;;;;;17.79;nan;100421.06;5079133;28;19984;-80
2021/10/10 12:25:34;;;;;;;;;;;;;;;17.28;nan;100436.72;5095279;28;19930;-80
2021/10/10 12:28:04;;;;;;;;;;;;;;;17.49;nan;100435.50;5081346;28;19928;-80
2021/10/10 12:30:33;;;;;;;;;;;;;;;17.36;nan;100426.06;5075578;28;19930;-82
2021/10/10 12:33:19;;;;;;;;;;;;;;;16.95;nan;100429.34;5093571;28;19931;-81
2021/10/10 12:35:55;;;;;;;;;;;;;;;16.90;nan;100431.91;5096670;28;19930;-81
2021/10/10 12:38:27;;;;;;;;;;;;;;;17.73;nan;100417.19;5075289;28;19924;-81
2021/10/10 12:40:54;;;;;;;;;;;;;;;17.59;nan;100420.34;5063662;28;19942;-80
2021/10/10 12:43:35;;;;;;;;;;;;;;;17.82;nan;100423.03;5083035;28;19924;-81
2021/10/10 12:46:02;;;;;;;;;;;;;;;17.21;nan;100411.47;5086826;28;19924;-81
2021/10/10 12:48:30;;;;;;;;;;;;;;;17.70;nan;100407.56;5086109;28;19931;-81
2021/10/10 12:50:58;;;;;;;;;;;;;;;18.20;nan;100404.31;5052046;28;20367;-81
2021/10/10 12:53:32;;;;;;;;;;;;;;;17.67;nan;100399.16;5055251;28;20405;-77
2021/10/10 12:56:27;;;;;;;;;;;;;;;18.11;nan;100401.31;5077991;28;19927;-80
2021/10/10 12:58:55;;;;;;;;;;;;;;;18.73;nan;100386.72;5058944;28;19930;-80
2021/10/10 13:01:26;;;;;;;;;;;;;;;18.84;nan;100387.19;5095254;28;19930;-80
2021/10/10 13:04:15;;;;;;;;;;;;;;;19.00;nan;100381.47;5075435;28;19978;-79
2021/10/10 13:06:55;;;;;;;;;;;;;;;18.84;nan;100395.69;5093061;28;19932;-78
2021/10/10 13:09:31;;;;;;;;;;;;;;;18.17;nan;100374.06;5082968;28;20349;-80
2021/10/10 13:11:59;;;;;;;;;;;;;;;18.82;nan;100392.53;5092347;28;19924;-77
2021/10/10 13:14:29;;;;;;;;;;;;;;;17.81;nan;100385.47;5057760;28;19924;-77
2021/10/10 13:16:56;;;;;;;;;;;;;;;17.33;nan;100381.75;5066703;28;19928;-77
2021/10/10 13:19:23;;;;;;;;;;;;;;;17.33;nan;100399.50;5090601;28;19924;-77
2021/10/10 13:21:51;;;;;;;;;;;;;;;17.05;nan;100399.31;5089978;28;19924;-77